aviador You're here:

MMEP Decoded Metar

TEPIC in MEXICO
Report Time2018-01-16 18:40:00
UTC Time2018-01-16 19:33:22
Flight Rules vfr VFR
Wind220° at 05 kt
W.Decomp.*RWY 20: 4.9 kt HW 1.0 kt RCW
W.Rank220° ranks 8
Current wind is below 220° avg. (5.4)
Visibility9999 m
Phenomena:N/A
Clouds:N/A
Expected CloudBase > 7,200 ft AGL from Temp-Dew spread
CeilingNone
Temp26°C (ISA +17)
Dew Point08°C (32% RH)
AAT23.7°C
QNH1021 hPa
Density Alt4,859 ft
Elevation3,025 ft
Report Wrong Elevation
Raw Report
MMEP 161840Z 22005KT 12SM SKC 26/08 A3016=

Extra information for MMEP:More info

Metar Taf Metar & Taf Last 4 Metars F.Rules Stats Wind Profile Meteogram Temp Stats Airport Information Weather charts Add Link Nearby VenuesMetar ALERT Operation Metar Decoded Social comments